Time;durP1;ratioP1;P1;durP2;ratioP2;P2;SDS_P1;SDS_P2;PMS_P1;PMS_P2;Temp;Humidity;BMP_temperature;BMP_pressure;BME280_temperature;BME280_humidity;BME280_pressure;Samples;Min_cycle;Max_cycle;Signal;HPM_P1;HPM_P2
2022/01/29 00:00:28;;;;;;;2.62;0.60;;;;;;;2.75;71.86;99476.38;1715269;82;21222;-56
2022/01/29 00:02:55;;;;;;;1.72;0.70;;;;;;;2.77;71.34;99472.77;1712519;82;21544;-56
2022/01/29 00:05:21;;;;;;;2.77;0.90;;;;;;;2.85;71.17;99480.53;1686642;82;21528;-56
2022/01/29 00:07:49;;;;;;;2.50;0.68;;;;;;;2.82;71.08;99485.44;1711465;82;21133;-56
2022/01/29 00:10:16;;;;;;;1.62;0.70;;;;;;;2.78;71.24;99483.98;1711947;82;21099;-57
2022/01/29 00:12:42;;;;;;;2.45;0.80;;;;;;;2.74;71.27;99488.53;1712322;82;21082;-56
2022/01/29 00:15:10;;;;;;;2.22;0.40;;;;;;;2.69;71.27;99482.79;1710904;82;21051;-56
2022/01/29 00:17:38;;;;;;;1.42;0.50;;;;;;;2.73;71.18;99488.63;1686505;82;21869;-57
2022/01/29 00:20:06;;;;;;;1.72;0.42;;;;;;;2.79;71.01;99499.47;1712703;82;21514;-57
2022/01/29 00:22:33;;;;;;;2.95;0.78;;;;;;;2.81;70.78;99495.93;1710845;82;21111;-58
2022/01/29 00:24:59;;;;;;;2.50;0.60;;;;;;;2.75;71.04;99499.27;1684964;82;21079;-57
2022/01/29 00:27:29;;;;;;;2.77;0.68;;;;;;;2.71;71.13;99506.08;1696452;82;21147;-57
2022/01/29 00:29:55;;;;;;;2.62;0.75;;;;;;;2.67;71.30;99502.81;1701208;82;21079;-57
2022/01/29 00:32:22;;;;;;;1.37;0.40;;;;;;;2.63;71.61;99507.01;1697790;82;21620;-57
2022/01/29 00:34:48;;;;;;;1.77;0.60;;;;;;;2.64;71.60;99493.93;1678623;82;21704;-57
2022/01/29 00:37:14;;;;;;;1.57;0.42;;;;;;;2.69;71.51;99507.91;1687603;84;21256;-57
2022/01/29 00:39:41;;;;;;;1.55;0.50;;;;;;;2.67;71.36;99496.31;1687039;84;21029;-58
2022/01/29 00:42:09;;;;;;;1.60;0.45;;;;;;;2.66;71.42;99508.95;1683217;84;21784;-58
2022/01/29 00:44:35;;;;;;;2.40;0.90;;;;;;;2.67;71.59;99509.30;1687162;83;21079;-57
2022/01/29 00:47:03;;;;;;;3.75;0.98;;;;;;;2.66;71.48;99514.63;1672177;83;21086;-57
2022/01/29 00:49:31;;;;;;;2.35;0.47;;;;;;;2.59;71.45;99532.34;1697875;83;21173;-57
2022/01/29 00:51:57;;;;;;;1.87;0.30;;;;;;;2.56;71.89;99514.34;1704927;83;21011;-56
2022/01/29 00:54:24;;;;;;;1.75;0.55;;;;;;;2.59;71.45;99518.05;1698466;83;21710;-57
2022/01/29 00:56:50;;;;;;;1.80;0.50;;;;;;;2.61;71.49;99523.98;1692624;83;21591;-57
2022/01/29 00:59:17;;;;;;;1.95;0.75;;;;;;;2.65;71.33;99524.62;1697536;83;21782;-58
2022/01/29 01:01:44;;;;;;;2.37;0.60;;;;;;;2.64;71.22;99529.44;1672411;83;21211;-58
2022/01/29 01:04:10;;;;;;;1.12;0.40;;;;;;;2.58;71.19;99522.86;1695532;83;21038;-58
2022/01/29 01:06:37;;;;;;;2.08;0.53;;;;;;;2.55;71.42;99533.44;1669533;83;21639;-58
2022/01/29 01:09:05;;;;;;;2.17;0.70;;;;;;;2.51;71.40;99533.27;1697394;83;21040;-57
2022/01/29 01:11:33;;;;;;;1.40;0.30;;;;;;;2.46;71.69;99534.00;1692295;83;21261;-59
2022/01/29 01:14:00;;;;;;;1.32;0.50;;;;;;;2.49;71.82;99533.35;1696349;83;21345;-58
2022/01/29 01:16:26;;;;;;;1.32;0.50;;;;;;;2.53;71.82;99539.19;1697388;83;21181;-58
2022/01/29 01:18:53;;;;;;;1.22;0.40;;;;;;;2.53;71.69;99543.09;1672101;83;21064;-58
2022/01/29 01:21:19;;;;;;;1.27;0.40;;;;;;;2.52;71.61;99537.06;1698406;83;21103;-57
2022/01/29 01:23:46;;;;;;;2.62;0.60;;;;;;;2.46;71.62;99528.81;1664911;83;21008;-57
2022/01/29 01:26:12;;;;;;;2.15;0.57;;;;;;;2.41;71.82;99539.46;1671315;83;21786;-58
2022/01/29 01:28:39;;;;;;;2.35;0.72;;;;;;;2.38;71.91;99541.77;1697532;83;21039;-58
2022/01/29 01:31:05;;;;;;;1.70;0.30;;;;;;;2.37;71.96;99547.91;1698364;84;21103;-58
2022/01/29 01:33:32;;;;;;;1.45;0.47;;;;;;;2.44;71.87;99543.18;1667852;84;21063;-58
2022/01/29 01:36:03;;;;;;;1.82;0.60;;;;;;;2.48;71.87;99551.62;1699836;82;21070;-58
2022/01/29 01:38:39;;;;;;;1.45;0.50;;;;;;;2.46;72.01;99560.80;1691282;83;21655;-58
2022/01/29 01:41:01;;;;;;;2.00;0.50;;;;;;;2.46;71.96;99566.46;1693376;83;21027;-59
2022/01/29 01:43:24;;;;;;;3.08;0.60;;;;;;;2.36;72.10;99569.59;1670372;84;21099;-58
2022/01/29 01:45:51;;;;;;;2.25;0.47;;;;;;;2.25;72.52;99557.69;1681755;83;21071;-58
2022/01/29 01:48:17;;;;;;;1.25;0.35;;;;;;;2.24;72.73;99559.94;1699358;83;21562;-58
2022/01/29 01:50:44;;;;;;;1.57;0.40;;;;;;;2.29;72.57;99570.88;1690818;82;22014;-57
2022/01/29 01:53:10;;;;;;;0.88;0.20;;;;;;;2.30;72.54;99576.90;1661429;83;21655;-57
2022/01/29 01:55:37;;;;;;;2.12;0.70;;;;;;;2.26;72.68;99576.25;1695641;82;21115;-58
2022/01/29 01:58:04;;;;;;;1.17;0.50;;;;;;;2.28;72.64;99570.50;1689758;83;21126;-57
2022/01/29 02:00:30;;;;;;;2.05;0.55;;;;;;;2.25;72.58;99580.23;1694698;83;21048;-58
2022/01/29 02:02:57;;;;;;;1.07;0.20;;;;;;;2.20;72.60;99581.79;1696927;82;21138;-57
2022/01/29 02:05:24;;;;;;;1.37;0.40;;;;;;;2.24;72.68;99587.19;1684006;83;21146;-59
2022/01/29 02:07:50;;;;;;;1.25;0.40;;;;;;;2.27;72.66;99587.45;1697124;83;21106;-57
2022/01/29 02:10:18;;;;;;;0.78;0.30;;;;;;;2.23;72.57;99591.53;1698513;82;21098;-57
2022/01/29 02:12:58;;;;;;;1.62;0.50;;;;;;;2.22;72.58;99592.94;1694612;83;21090;-57
2022/01/29 02:15:24;;;;;;;1.25;0.40;;;;;;;2.21;72.76;99612.02;1698297;82;21100;-57
2022/01/29 02:17:51;;;;;;;0.62;0.20;;;;;;;2.22;72.77;99589.87;1653588;83;21056;-58
2022/01/29 02:20:29;;;;;;;1.55;0.40;;;;;;;2.27;72.74;99600.00;1688825;83;21064;-58
2022/01/29 02:22:56;;;;;;;1.35;0.28;;;;;;;2.36;72.37;99596.84;1695882;83;21516;-57
2022/01/29 02:25:45;;;;;;;0.88;0.10;;;;;;;2.40;72.26;99603.99;1695587;83;21954;-57
2022/01/29 02:28:20;;;;;;;1.17;0.30;;;;;;;2.38;72.23;99614.47;1692285;83;21133;-58
2022/01/29 02:30:58;;;;;;;1.17;0.40;;;;;;;2.30;72.28;99612.77;1698062;83;21086;-57
2022/01/29 02:33:24;;;;;;;1.52;0.40;;;;;;;2.19;72.44;99618.59;1697898;83;21102;-57
2022/01/29 02:35:52;;;;;;;1.07;0.30;;;;;;;2.13;72.61;99616.81;1693535;83;21082;-57
2022/01/29 02:38:21;;;;;;;1.37;0.40;;;;;;;2.14;72.71;99630.18;1703254;82;21091;-58
2022/01/29 02:40:55;;;;;;;1.87;0.23;;;;;;;2.22;72.54;99645.69;1699618;83;21102;-58
2022/01/29 02:43:23;;;;;;;0.72;0.17;;;;;;;2.19;72.49;99640.66;1693900;82;21115;-58
2022/01/29 02:45:52;;;;;;;1.22;0.30;;;;;;;2.15;72.63;99651.30;1701814;83;21138;-57
2022/01/29 02:48:23;;;;;;;1.17;0.25;;;;;;;2.14;72.77;99642.69;1698260;82;21072;-57
2022/01/29 02:50:50;;;;;;;0.82;0.10;;;;;;;2.14;72.77;99653.54;1697695;83;21042;-58
2022/01/29 02:53:16;;;;;;;1.40;0.35;;;;;;;2.08;72.75;99657.30;1676602;84;21067;-57
2022/01/29 02:55:43;;;;;;;2.58;0.40;;;;;;;2.09;72.80;99658.16;1696979;83;21083;-58
2022/01/29 02:58:09;;;;;;;1.65;0.33;;;;;;;2.14;72.71;99657.44;1698667;83;21093;-58
2022/01/29 03:00:36;;;;;;;1.98;0.65;;;;;;;2.17;72.51;99661.98;1698714;82;21139;-57
2022/01/29 03:03:03;;;;;;;1.67;0.42;;;;;;;2.11;72.54;99664.92;1696761;83;21114;-58
2022/01/29 03:05:29;;;;;;;3.55;0.65;;;;;;;2.10;72.65;99664.56;1698310;83;21159;-58
2022/01/29 03:07:55;;;;;;;0.55;0.20;;;;;;;2.10;72.58;99671.48;1696790;82;21089;-58
2022/01/29 03:10:23;;;;;;;1.80;0.40;;;;;;;2.08;72.68;99670.27;1672431;84;21442;-58
2022/01/29 03:12:50;;;;;;;1.37;0.33;;;;;;;2.14;72.67;99673.00;1695829;82;21545;-57
2022/01/29 03:15:17;;;;;;;2.50;0.60;;;;;;;2.24;72.26;99676.75;1693365;83;21039;-58
2022/01/29 03:17:43;;;;;;;1.57;0.40;;;;;;;2.28;71.72;99689.91;1701451;82;21165;-58
2022/01/29 03:20:10;;;;;;;1.47;0.53;;;;;;;2.31;71.79;99691.05;1671575;83;21031;-58
2022/01/29 03:22:38;;;;;;;1.57;0.42;;;;;;;2.29;71.88;99708.47;1669697;83;21705;-58
2022/01/29 03:25:08;;;;;;;0.70;0.20;;;;;;;2.28;71.73;99698.17;1697957;83;22079;-57
2022/01/29 03:27:35;;;;;;;0.85;0.20;;;;;;;2.32;71.63;99700.52;1668786;83;21087;-57
2022/01/29 03:30:03;;;;;;;1.50;0.40;;;;;;;2.33;71.59;99711.26;1700540;82;21166;-58
2022/01/29 03:32:30;;;;;;;1.95;0.40;;;;;;;2.31;71.59;99709.69;1704582;82;21054;-57
2022/01/29 03:34:57;;;;;;;1.62;0.40;;;;;;;2.29;71.44;99714.14;1678545;82;21038;-58
2022/01/29 03:37:23;;;;;;;0.80;0.20;;;;;;;2.26;71.27;99709.94;1741141;81;21043;-57
2022/01/29 03:39:52;;;;;;;3.90;0.75;;;;;;;2.30;71.11;99721.81;1738149;80;21530;-58
2022/01/29 03:42:18;;;;;;;2.80;0.60;;;;;;;2.32;70.62;99719.13;1677346;83;21054;-58
2022/01/29 03:44:45;;;;;;;1.37;0.33;;;;;;;2.36;70.66;99719.35;1726442;82;21051;-58
2022/01/29 03:47:12;;;;;;;0.57;0.20;;;;;;;2.36;70.80;99729.27;1743496;81;21642;-56
2022/01/29 03:49:38;;;;;;;2.55;0.68;;;;;;;2.37;70.89;99735.28;1737117;81;21050;-57
2022/01/29 03:52:06;;;;;;;0.95;0.30;;;;;;;2.34;71.01;99735.48;1724869;82;21051;-58
2022/01/29 03:54:33;;;;;;;3.65;0.40;;;;;;;2.36;71.07;99738.83;1742994;81;21189;-58
2022/01/29 03:56:59;;;;;;;1.98;0.50;;;;;;;2.38;71.13;99748.19;1702130;83;21038;-58
2022/01/29 03:59:25;;;;;;;1.50;0.35;;;;;;;2.44;71.14;99753.52;1700310;82;20998;-57
2022/01/29 04:01:52;;;;;;;1.10;0.30;;;;;;;2.40;70.88;99751.55;1740788;80;21097;-57
2022/01/29 04:04:18;;;;;;;1.37;0.40;;;;;;;2.39;71.04;99758.95;1742621;81;21564;-57
2022/01/29 04:06:45;;;;;;;2.95;0.60;;;;;;;2.36;71.15;99753.10;1740649;80;21949;-58
2022/01/29 04:09:12;;;;;;;2.60;0.47;;;;;;;2.37;70.41;99757.36;1724120;81;21552;-58
2022/01/29 04:11:40;;;;;;;1.90;0.53;;;;;;;2.44;70.21;99763.04;1747208;80;21461;-58
2022/01/29 04:14:16;;;;;;;1.90;0.40;;;;;;;2.49;70.01;99774.01;1743092;81;21520;-58
2022/01/29 04:16:36;;;;;;;1.92;0.55;;;;;;;2.46;69.68;99760.75;1730436;82;21067;-57
2022/01/29 04:19:02;;;;;;;1.35;0.53;;;;;;;2.46;69.68;99778.92;1745370;80;21127;-58
2022/01/29 04:21:29;;;;;;;0.90;0.33;;;;;;;2.46;69.61;99780.70;1726862;82;21042;-57
2022/01/29 04:23:56;;;;;;;2.40;0.70;;;;;;;2.45;69.20;99777.71;1723805;82;21058;-58
2022/01/29 04:26:22;;;;;;;2.40;0.55;;;;;;;2.48;68.82;99782.27;1675559;82;21093;-58
2022/01/29 04:28:49;;;;;;;1.47;0.30;;;;;;;2.47;68.77;99787.11;1676570;82;21126;-59
2022/01/29 04:31:18;;;;;;;1.35;0.45;;;;;;;2.45;68.62;99790.70;1707730;82;21131;-57
2022/01/29 04:33:45;;;;;;;1.67;0.57;;;;;;;2.38;68.27;99794.92;1703260;82;21647;-57
2022/01/29 04:36:13;;;;;;;2.15;0.50;;;;;;;2.36;68.27;99801.97;1706327;82;21062;-57
2022/01/29 04:38:40;;;;;;;2.35;0.47;;;;;;;2.38;68.06;99807.08;1668992;83;21054;-57
2022/01/29 04:41:07;;;;;;;2.00;0.68;;;;;;;2.41;67.92;99799.12;1697625;82;21100;-58
2022/01/29 04:43:35;;;;;;;1.27;0.30;;;;;;;2.41;67.89;99810.34;1670523;82;21130;-58
2022/01/29 04:46:02;;;;;;;1.72;0.40;;;;;;;2.39;67.84;99817.38;1699983;82;21065;-56
2022/01/29 04:48:29;;;;;;;2.52;0.62;;;;;;;2.38;68.07;99817.46;1704696;83;21169;-58
2022/01/29 04:50:55;;;;;;;1.90;0.75;;;;;;;2.37;68.22;99823.13;1699792;83;21122;-57
2022/01/29 04:53:22;;;;;;;2.92;0.55;;;;;;;2.43;68.15;99818.05;1704194;83;21106;-57
2022/01/29 04:55:48;;;;;;;1.82;0.53;;;;;;;2.46;68.02;99836.53;1726738;81;21316;-56
2022/01/29 04:58:15;;;;;;;2.02;0.40;;;;;;;2.40;68.04;99846.33;1708738;82;21523;-59
2022/01/29 05:00:41;;;;;;;1.90;0.40;;;;;;;2.37;68.12;99843.90;1668729;83;21138;-56
2022/01/29 05:03:11;;;;;;;1.65;0.57;;;;;;;2.34;68.25;99845.83;1742484;80;21009;-57
2022/01/29 05:05:38;;;;;;;3.33;0.70;;;;;;;2.29;67.20;99843.47;1726057;81;21064;-56
2022/01/29 05:08:05;;;;;;;1.25;0.35;;;;;;;2.33;67.49;99851.46;1746710;81;21150;-57
2022/01/29 05:10:32;;;;;;;3.47;1.00;;;;;;;2.42;67.41;99865.70;1745256;81;21063;-57
2022/01/29 05:13:06;;;;;;;2.60;0.45;;;;;;;2.46;67.22;99867.69;1755302;80;21050;-57
2022/01/29 05:15:42;;;;;;;0.82;0.35;;;;;;;2.47;66.78;99870.65;1742432;80;20992;-56
2022/01/29 05:29:09;;;;;;;2.37;0.53;;;;;;;2.46;67.13;99894.95;1733675;81;21575;-57
2022/01/29 05:31:36;;;;;;;2.35;0.62;;;;;;;2.38;67.38;99890.17;1719690;81;21074;-58
2022/01/29 05:34:03;;;;;;;3.10;0.80;;;;;;;2.36;68.05;99903.23;1727334;81;21101;-58
2022/01/29 05:36:29;;;;;;;2.75;0.70;;;;;;;2.30;68.52;99898.83;1742727;80;21070;-58
2022/01/29 05:38:56;;;;;;;3.87;1.02;;;;;;;2.29;68.77;99905.78;1729704;81;21595;-58
2022/01/29 05:41:22;;;;;;;3.45;0.70;;;;;;;2.39;68.58;99919.12;1700639;83;21451;-58
2022/01/29 05:43:49;;;;;;;1.30;0.42;;;;;;;2.48;68.46;99931.59;1704933;82;21133;-57
2022/01/29 05:46:15;;;;;;;1.45;0.40;;;;;;;2.51;68.44;99934.50;1708209;82;21074;-57
2022/01/29 05:48:44;;;;;;;2.92;0.88;;;;;;;2.46;68.53;99937.81;1706538;82;21575;-58
2022/01/29 05:51:10;;;;;;;2.12;0.60;;;;;;;2.43;68.76;99938.80;1701096;82;21075;-58
2022/01/29 05:53:37;;;;;;;3.10;0.98;;;;;;;2.37;69.05;99937.38;1691407;84;21116;-58
2022/01/29 05:56:05;;;;;;;3.10;0.55;;;;;;;2.33;69.27;99948.83;1714414;82;21112;-59
2022/01/29 05:58:33;;;;;;;1.72;0.50;;;;;;;2.35;69.80;99957.37;1711632;82;21137;-60
2022/01/29 06:00:59;;;;;;;2.17;0.70;;;;;;;2.29;70.29;99957.70;1702640;82;21353;-58
2022/01/29 06:03:26;;;;;;;1.60;0.45;;;;;;;2.23;71.30;99967.94;1687287;84;21103;-60
2022/01/29 06:05:53;;;;;;;2.10;0.60;;;;;;;2.15;71.41;99971.85;1706073;82;21090;-58
2022/01/29 06:08:19;;;;;;;2.12;0.50;;;;;;;2.06;71.30;99973.17;1684054;83;21133;-60
2022/01/29 06:10:46;;;;;;;1.35;0.40;;;;;;;2.07;71.24;99970.11;1688622;83;21050;-57
2022/01/29 06:13:15;;;;;;;1.22;0.40;;;;;;;2.15;70.79;99978.34;1689027;83;21823;-57
2022/01/29 06:15:44;;;;;;;1.57;0.55;;;;;;;2.14;70.75;99985.77;1706413;82;21038;-59
2022/01/29 06:18:18;;;;;;;1.85;0.42;;;;;;;2.09;70.87;99989.89;1703459;82;21927;-58
2022/01/29 06:20:55;;;;;;;2.75;0.60;;;;;;;2.02;71.42;99988.06;1705912;82;21058;-58
2022/01/29 06:23:29;;;;;;;1.32;0.40;;;;;;;1.98;71.64;99984.40;1711939;82;21110;-58
2022/01/29 06:25:50;;;;;;;2.72;0.57;;;;;;;2.00;71.38;99987.31;1684377;82;21497;-58
2022/01/29 06:28:16;;;;;;;2.42;0.50;;;;;;;2.09;70.93;99991.19;1700811;82;21684;-57
2022/01/29 06:30:43;;;;;;;1.07;0.35;;;;;;;2.09;70.60;99990.36;1667949;83;21094;-56
2022/01/29 06:33:12;;;;;;;1.30;0.37;;;;;;;2.11;70.49;100001.50;1699250;83;21086;-57
2022/01/29 06:35:42;;;;;;;1.10;0.45;;;;;;;2.08;70.12;99998.58;1687855;82;21883;-57
2022/01/29 06:38:10;;;;;;;1.72;0.70;;;;;;;2.03;69.96;100007.06;1660533;83;21091;-57
2022/01/29 06:40:36;;;;;;;2.60;0.50;;;;;;;2.00;70.18;100005.48;1694556;83;21118;-56
2022/01/29 06:43:04;;;;;;;1.50;0.40;;;;;;;2.02;70.04;100011.42;1673956;83;21052;-58
2022/01/29 06:45:33;;;;;;;2.37;0.60;;;;;;;2.07;70.21;100012.93;1693864;83;21185;-59
2022/01/29 06:47:59;;;;;;;1.85;0.50;;;;;;;2.10;70.26;100018.83;1668778;84;22339;-56
2022/01/29 06:50:26;;;;;;;2.70;0.60;;;;;;;2.07;70.80;100025.91;1698599;82;22259;-58
2022/01/29 06:52:53;;;;;;;2.27;0.60;;;;;;;2.06;71.19;100022.95;1697089;83;21102;-57
2022/01/29 06:55:20;;;;;;;2.42;0.60;;;;;;;2.07;70.75;100023.31;1695501;83;21075;-58
2022/01/29 06:57:46;;;;;;;2.50;0.70;;;;;;;2.07;69.55;100031.09;1695509;82;21131;-56
2022/01/29 07:00:14;;;;;;;2.08;0.82;;;;;;;2.10;69.32;100024.45;1672002;83;21088;-58
2022/01/29 07:02:41;;;;;;;2.12;0.55;;;;;;;2.17;68.94;100034.47;1694531;83;21102;-57
2022/01/29 07:05:09;;;;;;;3.37;0.70;;;;;;;2.20;68.69;100032.16;1698946;83;21162;-58
2022/01/29 07:07:35;;;;;;;3.80;0.60;;;;;;;2.17;68.43;100027.12;1744370;81;21787;-59
2022/01/29 07:10:04;;;;;;;2.83;0.75;;;;;;;2.18;68.15;100049.58;1742271;81;21745;-58
2022/01/29 07:12:30;;;;;;;3.58;1.02;;;;;;;2.16;67.92;100041.86;1727546;81;21078;-57
2022/01/29 07:14:57;;;;;;;2.85;0.93;;;;;;;2.14;67.43;100051.95;1671238;83;21030;-57
2022/01/29 07:17:24;;;;;;;2.22;0.70;;;;;;;2.14;67.41;100046.30;1690097;83;21067;-58
2022/01/29 07:19:52;;;;;;;2.45;0.85;;;;;;;2.16;67.21;100046.23;1689418;82;21070;-57
2022/01/29 07:22:19;;;;;;;2.67;0.90;;;;;;;2.12;67.09;100052.47;1669782;84;21705;-58
2022/01/29 07:24:48;;;;;;;4.30;0.75;;;;;;;2.13;66.94;100063.25;1692440;83;22670;-57
2022/01/29 07:27:16;;;;;;;2.75;0.80;;;;;;;2.09;67.31;100061.73;1692819;83;21063;-57
2022/01/29 07:29:42;;;;;;;3.80;0.82;;;;;;;2.10;67.83;100064.25;1670816;83;21090;-57
2022/01/29 07:32:10;;;;;;;2.92;0.98;;;;;;;2.10;67.55;100071.18;1699364;82;21071;-58
2022/01/29 07:34:37;;;;;;;3.42;0.72;;;;;;;2.08;67.47;100073.02;1693306;83;21125;-57
2022/01/29 07:37:04;;;;;;;3.47;0.88;;;;;;;2.01;67.20;100062.93;1692758;82;21083;-57
2022/01/29 07:39:32;;;;;;;5.00;0.95;;;;;;;2.04;66.82;100078.36;1662350;84;21653;-57
2022/01/29 07:41:59;;;;;;;1.85;0.50;;;;;;;2.06;67.00;100082.64;1671376;84;21066;-58
2022/01/29 07:44:25;;;;;;;2.22;0.70;;;;;;;2.02;68.12;100082.80;1734884;81;21067;-58
2022/01/29 07:46:52;;;;;;;2.12;0.50;;;;;;;1.99;68.49;100088.13;1736595;81;21093;-57
2022/01/29 07:49:19;;;;;;;3.25;0.80;;;;;;;1.94;68.94;100095.30;1738564;80;21143;-57
2022/01/29 07:51:45;;;;;;;1.40;0.53;;;;;;;1.99;68.77;100098.51;1735971;80;21055;-57
2022/01/29 07:54:12;;;;;;;3.55;0.85;;;;;;;2.04;68.50;100095.69;1739583;80;21504;-58
2022/01/29 07:56:38;;;;;;;3.83;0.65;;;;;;;2.01;68.54;100104.45;1709615;82;21809;-58
2022/01/29 07:59:05;;;;;;;2.15;0.70;;;;;;;1.94;68.97;100114.77;1676639;83;21321;-57
2022/01/29 08:01:32;;;;;;;7.97;1.02;;;;;;;1.92;69.25;100111.87;1696231;82;21168;-58
2022/01/29 08:03:59;;;;;;;2.40;0.55;;;;;;;1.91;69.03;100117.97;1700611;83;21115;-57
2022/01/29 08:06:29;;;;;;;4.03;0.95;;;;;;;1.93;68.82;100120.85;1650620;82;21067;-58
2022/01/29 08:08:57;;;;;;;4.22;0.90;;;;;;;1.93;68.89;100114.37;1664664;84;22206;-56
2022/01/29 08:11:24;;;;;;;2.75;0.60;;;;;;;1.85;69.28;100132.91;1665405;82;21100;-57
2022/01/29 08:13:51;;;;;;;1.62;0.50;;;;;;;1.82;68.69;100125.27;1668679;84;21189;-59
2022/01/29 08:16:19;;;;;;;2.30;0.82;;;;;;;1.86;68.54;100135.05;1697868;83;21568;-56
2022/01/29 08:18:46;;;;;;;2.60;0.75;;;;;;;1.87;67.79;100148.41;1692990;83;21162;-57
2022/01/29 08:21:16;;;;;;;4.10;1.00;;;;;;;1.88;67.79;100141.45;1691608;83;21085;-58
2022/01/29 08:23:43;;;;;;;2.90;0.85;;;;;;;1.89;68.24;100153.06;1689667;82;21075;-59
2022/01/29 08:26:10;;;;;;;2.33;0.70;;;;;;;1.96;68.55;100153.61;1668436;82;21205;-56
2022/01/29 08:28:36;;;;;;;3.00;1.00;;;;;;;2.03;67.12;100140.72;1669917;84;21052;-59
2022/01/29 08:31:03;;;;;;;1.75;0.50;;;;;;;2.06;67.38;100151.42;1693623;82;21034;-60
2022/01/29 08:33:30;;;;;;;1.90;0.70;;;;;;;2.07;66.25;100151.35;1692510;82;21485;-58
2022/01/29 08:36:00;;;;;;;2.95;0.90;;;;;;;2.10;66.10;100160.73;1668393;82;20996;-58
2022/01/29 08:38:28;;;;;;;2.33;0.60;;;;;;;2.08;65.49;100150.88;1669491;84;21106;-59
2022/01/29 08:40:55;;;;;;;2.87;0.68;;;;;;;2.11;65.38;100161.95;1692003;82;21124;-58
2022/01/29 08:55:58;;;;;;;3.27;0.88;;;;;;;3.46;60.91;100171.56;1775137;78;22209;-56
2022/01/29 08:58:27;;;;;;;3.42;0.90;;;;;;;3.52;60.12;100172.07;1748022;80;21076;-55
2022/01/29 09:00:53;;;;;;;3.25;1.20;;;;;;;3.42;60.00;100175.27;1746287;80;21185;-55
2022/01/29 09:03:20;;;;;;;2.58;0.98;;;;;;;3.33;60.12;100174.83;1747986;80;21109;-55
2022/01/29 09:05:47;;;;;;;4.15;0.90;;;;;;;3.22;60.19;100181.52;1745602;81;21017;-58
2022/01/29 09:08:14;;;;;;;3.08;1.07;;;;;;;3.06;60.17;100174.97;1698972;82;21594;-55
2022/01/29 09:10:41;;;;;;;3.33;0.70;;;;;;;2.90;60.70;100185.33;1735168;81;21074;-55
2022/01/29 09:13:08;;;;;;;3.20;1.12;;;;;;;2.76;60.64;100184.28;1733475;81;21997;-56
2022/01/29 09:15:36;;;;;;;3.92;1.22;;;;;;;2.64;60.97;100186.20;1736702;81;21021;-56
2022/01/29 09:18:03;;;;;;;2.10;0.62;;;;;;;2.52;61.30;100167.31;1741338;81;21111;-56
2022/01/29 09:20:29;;;;;;;2.98;0.95;;;;;;;2.49;61.40;100187.80;1717951;81;21514;-56
2022/01/29 09:22:56;;;;;;;2.70;0.88;;;;;;;2.44;61.72;100199.32;1665402;82;21134;-56
2022/01/29 09:25:22;;;;;;;3.70;1.17;;;;;;;2.39;61.67;100186.58;1719532;80;21093;-56
2022/01/29 09:27:49;;;;;;;3.67;1.12;;;;;;;2.37;61.78;100193.15;1743167;80;21127;-55
2022/01/29 09:30:15;;;;;;;4.53;1.15;;;;;;;2.35;61.65;100200.62;1745992;81;21177;-56
2022/01/29 09:32:42;;;;;;;4.45;1.17;;;;;;;2.27;61.76;100203.61;1737418;81;22415;-56
2022/01/29 09:35:10;;;;;;;3.47;1.00;;;;;;;2.26;61.97;100199.31;1742139;81;22129;-56
2022/01/29 09:37:37;;;;;;;2.60;0.78;;;;;;;2.24;62.36;100201.15;1744320;81;21925;-56
2022/01/29 09:40:05;;;;;;;3.05;1.12;;;;;;;2.23;62.50;100195.56;1750074;80;21560;-56
2022/01/29 09:42:32;;;;;;;4.22;1.10;;;;;;;2.23;62.65;100201.59;1745615;80;21032;-55
2022/01/29 09:44:59;;;;;;;4.58;1.30;;;;;;;2.20;62.86;100198.30;1741991;81;21090;-56
2022/01/29 09:47:25;;;;;;;3.92;1.02;;;;;;;2.25;63.02;100217.56;1713466;81;21103;-56
2022/01/29 09:49:52;;;;;;;3.30;0.93;;;;;;;2.21;62.97;100203.42;1739726;81;21153;-56
2022/01/29 09:52:19;;;;;;;3.50;1.52;;;;;;;2.23;63.11;100208.08;1679459;84;21125;-54
2022/01/29 09:54:47;;;;;;;2.17;0.70;;;;;;;2.25;62.88;100209.77;1734469;80;21109;-54
2022/01/29 09:57:14;;;;;;;3.27;1.25;;;;;;;2.28;62.93;100194.88;1720001;82;21583;-53
2022/01/29 09:59:40;;;;;;;3.30;0.98;;;;;;;2.19;62.73;100200.53;1744106;81;21124;-54
2022/01/29 10:02:16;;;;;;;3.58;1.10;;;;;;;2.18;63.83;100219.61;1736125;81;21426;-53
2022/01/29 10:04:53;;;;;;;2.58;0.98;;;;;;;2.17;65.71;100214.88;1710740;82;21041;-54
2022/01/29 10:07:26;;;;;;;3.10;0.90;;;;;;;2.19;66.58;100214.34;1746207;81;21147;-53
2022/01/29 10:09:53;;;;;;;2.60;1.00;;;;;;;2.19;64.31;100214.34;1746271;81;21022;-54
2022/01/29 10:12:29;;;;;;;3.60;1.17;;;;;;;2.21;62.41;100206.48;1742266;81;21105;-53
2022/01/29 10:15:04;;;;;;;3.75;1.15;;;;;;;2.22;62.06;100222.45;1741432;80;21133;-54
2022/01/29 10:17:50;;;;;;;2.40;0.80;;;;;;;2.20;62.33;100217.34;1702910;82;26620;-53
2022/01/29 10:20:27;;;;;;;2.77;0.85;;;;;;;2.15;62.12;100226.23;1714139;82;21073;-55
2022/01/29 10:23:00;;;;;;;2.15;0.78;;;;;;;2.12;62.04;100223.78;1703132;82;21711;-55
2022/01/29 10:25:30;;;;;;;4.75;1.10;;;;;;;2.11;62.29;100226.84;1703941;82;21154;-55
2022/01/29 10:28:15;;;;;;;2.72;0.82;;;;;;;2.12;62.16;100227.67;1735536;80;21115;-55
2022/01/29 10:30:56;;;;;;;2.70;0.62;;;;;;;2.09;62.12;100229.98;1736270;81;21378;-53
2022/01/29 10:33:38;;;;;;;3.42;0.82;;;;;;;2.06;62.22;100227.98;1697009;82;21662;-53
2022/01/29 10:36:10;;;;;;;2.80;0.70;;;;;;;2.06;62.24;100240.97;1708631;80;21145;-53
2022/01/29 10:38:45;;;;;;;2.30;0.78;;;;;;;2.03;61.95;100238.91;1738173;80;21065;-55
2022/01/29 10:41:30;;;;;;;2.72;0.90;;;;;;;2.02;62.13;100243.70;1741103;81;21105;-55
2022/01/29 10:44:11;;;;;;;3.42;0.90;;;;;;;2.03;62.30;100245.39;1743211;81;21506;-55
2022/01/29 10:46:44;;;;;;;2.52;0.80;;;;;;;2.06;62.34;100246.98;1745288;81;21576;-54
2022/01/29 10:49:29;;;;;;;3.95;1.02;;;;;;;2.03;62.18;100240.20;1742097;81;21057;-55
2022/01/29 10:52:03;;;;;;;;;;;;;;;2.07;61.76;100253.87;1743315;80;21105;-54
2022/01/29 10:54:36;;;;;;;2.17;0.68;;;;;;;2.02;61.51;100248.05;1686142;83;22001;-54
2022/01/29 10:57:06;;;;;;;2.27;0.72;;;;;;;1.97;61.50;100252.16;1740372;80;21120;-56
2022/01/29 10:59:36;;;;;;;3.08;1.12;;;;;;;1.93;62.46;100275.25;1711384;81;21596;-55
2022/01/29 11:02:08;;;;;;;4.62;1.32;;;;;;;1.94;62.79;100247.57;1716626;81;21572;-55
2022/01/29 11:04:36;;;;;;;3.40;0.78;;;;;;;1.98;61.90;100254.28;1741522;81;21057;-54
2022/01/29 11:07:09;;;;;;;3.92;0.98;;;;;;;1.97;60.91;100257.34;1744830;81;21137;-55
2022/01/29 11:09:34;;;;;;;3.05;1.10;;;;;;;1.98;61.12;100255.12;1743718;80;21105;-54
2022/01/29 11:12:05;;;;;;;3.65;1.15;;;;;;;2.01;61.09;100262.77;1700936;82;21242;-56
2022/01/29 11:14:32;;;;;;;3.22;0.88;;;;;;;2.03;60.56;100273.94;1702934;82;21609;-55
2022/01/29 11:16:59;;;;;;;2.60;0.75;;;;;;;2.07;60.50;100258.20;1736900;81;21545;-54
2022/01/29 11:19:25;;;;;;;3.17;0.80;;;;;;;2.04;60.25;100254.84;1743099;81;21116;-56
2022/01/29 11:21:54;;;;;;;3.40;0.90;;;;;;;2.07;60.22;100262.95;1736441;81;21081;-55
2022/01/29 11:24:23;;;;;;;2.47;0.95;;;;;;;2.11;60.32;100268.84;1741048;80;22067;-55
2022/01/29 11:26:50;;;;;;;3.90;0.80;;;;;;;2.13;60.12;100265.71;1744343;80;21110;-55
2022/01/29 11:29:35;;;;;;;3.35;0.72;;;;;;;2.16;60.01;100272.89;1740922;80;21105;-55
2022/01/29 11:32:24;;;;;;;2.77;0.65;;;;;;;2.11;59.48;100268.84;1743062;80;21829;-53
2022/01/29 11:35:11;;;;;;;2.95;1.00;;;;;;;2.07;59.33;100265.55;1737033;80;21144;-54
2022/01/29 11:37:57;;;;;;;2.20;0.88;;;;;;;2.09;59.74;100271.51;1715496;82;21081;-54
2022/01/29 11:40:35;;;;;;;;;;;;;;;2.08;59.83;100275.00;1739084;80;21533;-55
2022/01/29 11:43:10;;;;;;;2.55;0.90;;;;;;;2.08;59.53;100272.88;1719386;82;20194;-53
2022/01/29 11:45:48;;;;;;;2.80;1.07;;;;;;;2.02;59.89;100287.82;1738221;81;21099;-54
2022/01/29 11:48:31;;;;;;;3.60;1.10;;;;;;;2.00;59.19;100277.97;1735902;80;21110;-55
2022/01/29 11:51:05;;;;;;;3.00;0.80;;;;;;;2.02;59.56;100280.50;1735720;81;21061;-55
2022/01/29 11:53:52;;;;;;;3.58;1.20;;;;;;;1.99;59.90;100278.88;1736761;80;21593;-55
2022/01/29 11:56:31;;;;;;;4.22;1.65;;;;;;;2.00;59.75;100280.56;1738324;80;21058;-55
2022/01/29 11:59:27;;;;;;;2.83;1.15;;;;;;;2.01;59.51;100278.34;1705284;82;21120;-55
2022/01/29 12:02:20;;;;;;;3.47;1.07;;;;;;;2.04;59.68;100286.45;1674773;82;21077;-54
2022/01/29 12:04:58;;;;;;;2.45;0.88;;;;;;;2.00;59.36;100279.70;1672713;83;21625;-54
2022/01/29 12:07:29;;;;;;;3.55;0.88;;;;;;;2.01;59.38;100290.02;1750020;80;21058;-55
2022/01/29 12:10:11;;;;;;;4.10;1.27;;;;;;;2.00;59.34;100279.27;1722077;81;21558;-55